.
WxDataArchive / Data Records for 2014-10-04
2014-10-03 October 2014 2014-10-05

Data Records for Saturday, 04 October 2014

Time	Temp	Chill	HIndex	Humid	Dewpt	 Wind 	HiWind	WindDir	Rain 	Barom
-----	----	-----	------	-----	-----	------	------	-------	-----	-----
00:00	45.5	45.5	45.5	89	42.4	0	3	292	0.00	29.737 
00:05	45.5	45.5	45.5	89	42.4	1	4	292	0.00	29.737 
00:10	45.4	45.4	45.4	89	42.3	0	2	270	0.00	29.737 
00:15	45.4	45.4	45.4	89	42.3	0	2	270	0.00	29.733 
00:20	45.4	45.4	45.4	89	42.3	1	4	270	0.00	29.733 
00:25	45.2	45.2	45.2	90	42.4	1	3	270	0.00	29.733 
00:30	45.2	45.2	45.2	90	42.4	1	3	270	0.00	29.732 
00:35	45.2	45.2	45.2	89	42.2	1	3	270	0.00	29.732 
00:40	45.2	45.2	45.2	89	42.2	1	4	270	0.00	29.732 
00:45	45.2	45.2	45.2	89	42.2	1	6	270	0.00	29.725 
00:50	45.2	45.2	45.2	89	42.2	1	3	270	0.00	29.725 
00:55	45.2	45.2	45.2	89	42.2	1	4	270	0.00	29.725 
01:00	45.2	45.2	45.2	88	41.9	1	3	270	0.00	29.718 
01:05	45.2	45.2	45.2	88	41.9	0	1	270	0.00	29.718 
01:10	45.2	45.2	45.2	88	41.9	0	1	270	0.00	29.718 
01:15	45.2	45.2	45.2	87	41.6	1	3	270	0.00	29.717 
01:20	45.2	45.2	45.2	87	41.6	0	2	270	0.00	29.717 
01:25	45.2	45.2	45.2	87	41.6	0	3	270	0.00	29.717 
01:30	45.2	45.2	45.2	86	41.3	0	3	270	0.00	29.714 
01:35	45.2	45.2	45.2	86	41.3	0	4	270	0.00	29.714 
01:40	45.2	45.2	45.2	86	41.3	0	2	270	0.00	29.714 
01:45	45.2	45.2	45.2	86	41.3	0	2	270	0.00	29.715 
01:50	45.1	45.1	45.1	85	40.9	0	4	270	0.00	29.715 
01:55	45.1	45.1	45.1	84	40.6	0	2	270	0.00	29.715 
02:00	45.1	45.1	45.1	84	40.6	0	2	270	0.00	29.716 
02:05	45.1	45.1	45.1	84	40.6	0	4	270	0.00	29.716 
02:10	45.1	45.1	45.1	84	40.6	1	4	270	0.00	29.716 
02:15	45.1	45.1	45.1	83	40.3	1	4	270	0.00	29.717 
02:20	45.1	45.1	45.1	83	40.3	0	1	270	0.00	29.717 
02:25	45.1	45.1	45.1	83	40.3	0	3	270	0.00	29.717 
02:30	45.1	45.1	45.1	83	40.3	0	3	270	0.00	29.716 
02:35	45.1	45.1	45.1	82	39.9	0	3	270	0.00	29.716 
02:40	45.1	45.1	45.1	83	40.3	0	1	270	0.00	29.716 
02:45	45.1	45.1	45.1	83	40.3	0	2	270	0.00	29.717 
02:50	45.1	45.1	45.1	83	40.3	0	2	270	0.00	29.717 
02:55	45.2	45.2	45.2	83	40.3	1	3	270	0.00	29.717 
03:00	45.2	45.2	45.2	83	40.3	0	3	270	0.00	29.709 
03:05	45.1	45.1	45.1	82	39.9	1	4	270	0.00	29.709 
03:10	45.1	45.1	45.1	81	39.6	0	3	270	0.00	29.709 
03:15	44.9	44.9	44.9	78	38.5	2	6	270	0.00	29.709 
03:20	44.9	44.9	44.9	77	38.1	1	4	270	0.00	29.709 
03:25	44.8	44.8	44.8	75	37.4	1	4	292	0.00	29.709 
03:30	44.8	44.8	44.8	73	36.7	1	4	270	0.00	29.708 
03:35	44.8	44.8	44.8	71	36.0	1	5	270	0.00	29.708 
03:40	44.6	44.6	44.6	72	36.1	1	5	270	0.00	29.708 
03:45	44.6	44.6	44.6	71	35.8	2	5	270	0.00	29.707 
03:50	44.6	44.6	44.6	71	35.8	1	5	292	0.00	29.707 
03:55	44.6	44.6	44.6	69	35.1	2	7	270	0.00	29.707 
04:00	44.5	44.5	44.5	69	35.0	1	5	270	0.00	29.707 
04:05	44.5	44.5	44.5	68	34.6	1	5	270	0.00	29.707 
04:10	44.3	44.3	44.3	69	34.8	1	4	270	0.00	29.707 
04:15	44.3	44.3	44.3	69	34.8	1	5	270	0.00	29.705 
04:20	44.2	44.2	44.2	70	35.0	1	5	270	0.00	29.705 
04:25	44.2	44.2	44.2	72	35.8	0	2	270	0.00	29.705 
04:30	44.1	44.1	44.1	73	36.0	0	3	270	0.00	29.706 
04:35	43.9	43.9	43.9	73	35.8	0	3	270	0.00	29.706 
04:40	43.8	43.8	43.8	72	35.4	0	3	270	0.00	29.706 
04:45	43.5	43.5	43.5	68	33.7	0	2	270	0.00	29.707 
04:50	43.2	43.2	43.2	63	31.5	1	5	270	0.00	29.707 
04:55	43.1	43.1	43.1	59	29.8	0	5	270	0.00	29.707 
05:00	42.9	42.9	42.9	57	28.7	1	6	292	0.00	29.707 
05:05	42.8	42.8	42.8	57	28.6	1	5	292	0.00	29.707 
05:10	42.6	42.6	42.6	56	28.0	1	3	292	0.00	29.707 
05:15	42.5	42.5	42.5	57	28.4	0	3	292	0.00	29.707 
05:20	42.3	42.3	42.3	58	28.6	0	2	292	0.00	29.707 
05:25	42.2	42.2	42.2	59	28.9	0	2	292	0.00	29.707 
05:30	42.2	42.2	42.2	59	28.9	1	5	292	0.00	29.704 
05:35	42.2	42.2	42.2	60	29.3	0	2	292	0.00	29.704 
05:40	42.1	42.1	42.1	61	29.6	0	2	292	0.00	29.704 
05:45	42.1	42.1	42.1	60	29.2	0	1	292	0.00	29.701 
05:50	41.9	41.9	41.9	61	29.4	0	1	292	0.00	29.701 
05:55	42.1	42.1	42.1	62	30.0	0	1	292	0.00	29.701 
06:00	42.1	42.1	42.1	62	30.0	0	3	292	0.00	29.700 
06:05	42.1	42.1	42.1	62	30.0	0	4	292	0.00	29.700 
06:10	42.2	42.2	42.2	61	29.7	0	4	292	0.00	29.700 
06:15	42.2	42.2	42.2	61	29.7	0	3	292	0.00	29.707 
06:20	42.3	42.3	42.3	61	29.8	0	2	292	0.00	29.707 
06:25	42.3	42.3	42.3	61	29.8	0	2	292	0.00	29.707 
06:30	42.3	42.3	42.3	62	30.2	0	2	292	0.00	29.709 
06:35	42.3	42.3	42.3	62	30.2	0	3	292	0.00	29.709 
06:40	42.3	42.3	42.3	62	30.2	0	2	45	0.00	29.709 
06:45	42.3	42.3	42.3	61	29.8	0	1	45	0.00	29.710 
06:50	42.3	42.3	42.3	61	29.8	0	3	45	0.00	29.710 
06:55	42.3	42.3	42.3	60	29.4	1	6	292	0.00	29.710 
07:00	42.3	42.3	42.3	60	29.4	0	2	270	0.00	29.709 
07:05	42.3	42.3	42.3	60	29.4	0	2	270	0.00	29.709 
07:10	42.3	42.3	42.3	60	29.4	0	2	270	0.00	29.709 
07:15	42.3	42.3	42.3	60	29.4	0	1	270	0.00	29.709 
07:20	42.2	42.2	42.2	61	29.7	0	2	270	0.00	29.709 
07:25	42.2	42.2	42.2	61	29.7	1	4	270	0.00	29.709 
07:30	42.2	42.2	42.2	62	30.1	0	2	270	0.00	29.706 
07:35	42.2	42.2	42.2	62	30.1	0	2	270	0.00	29.706 
07:40	42.2	42.2	42.2	63	30.5	0	3	270	0.00	29.706 
07:45	42.1	42.1	42.1	63	30.4	0	3	270	0.00	29.706 
07:50	42.1	42.1	42.1	64	30.8	0	3	270	0.00	29.706 
07:55	42.1	42.1	42.1	65	31.2	0	3	270	0.00	29.706 
08:00	42.1	42.1	42.1	65	31.2	1	4	270	0.00	29.703 
08:05	42.1	42.1	42.1	64	30.8	1	4	270	0.00	29.703 
08:10	41.9	41.9	41.9	65	31.0	0	3	270	0.00	29.703 
08:15	41.9	41.9	41.9	65	31.0	1	3	270	0.00	29.706 
08:20	41.9	41.9	41.9	66	31.4	1	6	270	0.00	29.706 
08:25	42.1	42.1	42.1	65	31.2	1	3	270	0.00	29.706 
08:30	42.2	42.2	42.2	65	31.3	1	4	270	0.00	29.706 
08:35	42.2	42.2	42.2	64	30.9	0	4	270	0.00	29.706 
08:40	42.1	42.1	42.1	64	30.8	1	7	270	0.00	29.706 
08:45	41.9	41.9	41.9	64	30.6	1	5	292	0.00	29.704 
08:50	41.9	41.9	41.9	65	31.0	1	5	270	0.00	29.704 
08:55	41.9	41.9	41.9	64	30.6	2	5	270	0.00	29.704 
09:00	41.8	41.8	41.8	64	30.5	1	6	270	0.00	29.701 
09:05	41.8	41.8	41.8	62	29.7	2	6	270	0.00	29.701 
09:10	41.8	41.8	41.8	63	30.1	1	4	270	0.00	29.701 
09:15	41.8	41.8	41.8	63	30.1	1	5	270	0.00	29.700 
09:20	41.9	41.9	41.9	64	30.6	1	4	270	0.00	29.700 
09:25	41.9	41.9	41.9	63	30.2	1	5	270	0.00	29.700 
09:30	42.1	42.1	42.1	63	30.4	1	4	270	0.00	29.700 
09:35	42.3	42.3	42.3	64	31.0	1	6	270	0.00	29.700 
09:40	42.6	42.6	42.6	63	30.9	2	5	270	0.00	29.700 
09:45	42.6	42.6	42.6	63	30.9	1	10	270	0.00	29.700 
09:50	42.5	42.5	42.5	63	30.8	1	4	270	0.00	29.700 
09:55	42.3	42.3	42.3	64	31.0	0	6	270	0.00	29.700 
10:00	42.2	42.2	42.2	64	30.9	1	6	270	0.00	29.700 
10:05	42.1	42.1	42.1	65	31.2	0	3	270	0.00	29.700 
10:10	41.9	41.9	41.9	65	31.0	1	5	270	0.00	29.700 
10:15	41.9	41.9	41.9	65	31.0	1	4	248	0.00	29.708 
10:20	42.1	42.1	42.1	65	31.2	0	3	248	0.00	29.708 
10:25	42.1	42.1	42.1	64	30.8	1	6	248	0.00	29.708 
10:30	42.1	42.1	42.1	63	30.4	1	7	270	0.00	29.708 
10:35	42.2	42.2	42.2	65	31.3	1	9	270	0.00	29.708 
10:40	42.5	42.5	42.5	64	31.2	1	7	270	0.00	29.708 
10:45	42.8	42.8	42.8	64	31.5	0	2	270	0.00	29.704 
10:50	43.1	43.1	43.1	62	31.0	1	6	270	0.00	29.704 
10:55	42.9	42.9	42.9	62	30.8	1	7	270	0.00	29.704 
11:00	42.8	42.8	42.8	61	30.3	1	6	292	0.00	29.710 
11:05	42.8	42.8	42.8	61	30.3	0	3	292	0.00	29.710 
11:10	42.6	42.6	42.6	62	30.5	1	5	292	0.00	29.710 
11:15	42.6	42.6	42.6	61	30.1	2	5	292	0.00	29.710 
11:20	42.8	42.8	42.8	60	29.9	1	5	248	0.00	29.710 
11:25	43.1	43.1	43.1	62	31.0	1	4	270	0.00	29.710 
11:30	43.8	43.8	43.8	59	30.4	1	5	270	0.00	29.706 
11:35	44.2	44.2	44.2	57	29.9	1	5	270	0.00	29.706 
11:40	44.1	44.1	44.1	57	29.9	2	5	270	0.00	29.706 
11:45	43.9	43.9	43.9	57	29.7	2	9	270	0.00	29.705 
11:50	44.8	44.8	44.8	55	29.6	2	5	270	0.00	29.705 
11:55	45.1	45.1	45.1	55	29.9	2	6	270	0.00	29.705 
12:00	45.1	45.1	45.1	53	29.0	2	7	270	0.00	29.701 
12:05	45.1	45.1	45.1	52	28.5	3	9	270	0.00	29.701 
12:10	45.2	45.2	45.2	51	28.2	3	7	270	0.00	29.701 
12:15	45.7	45.7	45.7	52	29.1	2	9	292	0.00	29.702 
12:20	46.0	46.0	46.0	54	30.3	1	5	270	0.00	29.702 
12:25	45.8	45.8	45.8	51	28.7	3	9	270	0.00	29.702 
12:30	45.5	45.5	45.5	51	28.4	2	9	270	0.00	29.708 
12:35	45.1	45.1	45.1	50	27.6	3	12	270	0.00	29.708 
12:40	44.6	44.6	44.6	52	28.1	3	7	270	0.00	29.708 
12:45	44.1	44.1	44.1	56	29.4	3	11	270	0.00	29.721 
12:50	43.6	43.6	43.6	59	30.2	2	6	270	0.00	29.721 
12:55	42.9	42.9	42.9	62	30.8	3	7	270	0.00	29.721 
13:00	42.2	42.2	42.2	66	31.7	2	5	270	0.00	29.736 
13:05	41.9	41.9	41.9	67	31.8	2	5	270	0.00	29.736 
13:10	41.6	41.6	41.6	67	31.5	2	7	270	0.00	29.736 
13:15	41.5	41.5	41.5	68	31.7	2	11	270	0.00	29.741 
13:20	41.3	41.3	41.3	70	32.3	2	7	292	0.00	29.741 
13:25	41.6	41.6	41.6	70	32.6	0	3	248	0.00	29.741 
13:30	41.8	41.8	41.8	69	32.4	2	5	248	0.00	29.734 
13:35	41.9	41.9	41.9	71	33.2	1	5	292	0.00	29.734 
13:40	42.2	42.2	42.2	71	33.5	1	5	292	0.00	29.734 
13:45	42.8	42.8	42.8	72	34.4	1	5	270	0.00	29.730 
13:50	42.9	42.9	42.9	70	33.8	1	4	270	0.00	29.730 
13:55	43.1	43.1	43.1	73	35.0	1	6	248	0.00	29.730 
14:00	42.8	42.8	42.8	70	33.7	1	5	270	0.00	29.727 
14:05	42.5	42.5	42.5	70	33.4	1	9	270	0.00	29.727 
14:10	42.2	42.2	42.2	70	33.1	1	7	270	0.00	29.727 
14:15	42.2	42.2	42.2	71	33.5	1	3	248	0.00	29.728 
14:20	42.1	42.1	42.1	70	33.0	0	3	270	0.00	29.728 
14:25	41.9	41.9	41.9	71	33.2	0	3	270	0.00	29.728 
14:30	41.9	41.9	41.9	70	32.8	1	6	270	0.00	29.727 
14:35	41.8	41.8	41.8	72	33.4	0	3	270	0.00	29.727 
14:40	41.6	41.6	41.6	74	33.9	0	2	270	0.00	29.727 
14:45	41.6	41.6	41.6	73	33.6	2	6	270	0.00	29.728 
14:50	41.6	41.6	41.6	72	33.3	1	4	270	0.00	29.728 
14:55	41.8	41.8	41.8	71	33.1	1	6	270	0.00	29.728 
15:00	41.6	41.6	41.6	69	32.2	1	5	270	0.00	29.732 
15:05	41.6	41.6	41.6	69	32.2	2	7	270	0.00	29.732 
15:10	41.8	41.8	41.8	70	32.7	2	6	270	0.00	29.732 
15:15	41.6	41.6	41.6	70	32.6	2	6	270	0.00	29.735 
15:20	41.6	41.6	41.6	71	32.9	1	6	270	0.00	29.735 
15:25	41.9	41.9	41.9	71	33.2	1	4	270	0.00	29.735 
15:30	41.9	41.9	41.9	70	32.8	2	5	270	0.00	29.736 
15:35	41.8	41.8	41.8	70	32.7	1	4	270	0.00	29.736 
15:40	41.6	41.6	41.6	69	32.2	1	4	270	0.00	29.736 
15:45	41.6	41.6	41.6	70	32.6	1	5	292	0.00	29.735 
15:50	41.6	41.6	41.6	69	32.2	1	5	292	0.00	29.735 
15:55	41.8	41.8	41.8	70	32.7	1	4	270	0.00	29.735 
16:00	41.8	41.8	41.8	70	32.7	1	5	270	0.00	29.735 
16:05	41.8	41.8	41.8	70	32.7	1	6	248	0.00	29.735 
16:10	41.6	41.6	41.6	71	32.9	1	5	248	0.00	29.735 
16:15	41.6	41.6	41.6	72	33.3	1	4	270	0.00	29.739 
16:20	41.5	41.5	41.5	72	33.2	1	5	270	0.00	29.739 
16:25	41.6	41.6	41.6	73	33.6	0	3	270	0.00	29.739 
16:30	41.5	41.5	41.5	74	33.8	0	3	270	0.00	29.738 
16:35	41.5	41.5	41.5	75	34.2	0	3	292	0.00	29.738 
16:40	41.3	41.3	41.3	75	34.0	0	3	292	0.00	29.738 
16:45	41.3	41.3	41.3	76	34.3	0	2	292	0.00	29.738 
16:50	41.2	41.2	41.2	76	34.2	1	4	292	0.00	29.738 
16:55	41.2	41.2	41.2	76	34.2	0	3	45	0.00	29.738 
17:00	41.3	41.3	41.3	77	34.6	0	3	270	0.00	29.737 
17:05	41.5	41.5	41.5	76	34.5	1	5	270	0.00	29.737 
17:10	41.6	41.6	41.6	76	34.6	0	3	292	0.00	29.737 
17:15	41.6	41.6	41.6	76	34.6	1	5	292	0.00	29.738 
17:20	41.6	41.6	41.6	76	34.6	1	4	292	0.00	29.738 
17:25	41.6	41.6	41.6	76	34.6	1	4	292	0.00	29.738 
17:30	41.6	41.6	41.6	77	34.9	0	4	292	0.00	29.741 
17:35	41.6	41.6	41.6	77	34.9	1	5	292	0.00	29.741 
17:40	41.8	41.8	41.8	79	35.8	0	5	270	0.00	29.741 
17:45	41.6	41.6	41.6	79	35.6	1	4	270	0.00	29.749 
17:50	41.6	41.6	41.6	80	35.9	1	3	292	0.00	29.749 
17:55	41.5	41.5	41.5	81	36.1	0	2	292	0.00	29.749 
18:00	41.5	41.5	41.5	81	36.1	0	4	292	0.00	29.749 
18:05	41.5	41.5	41.5	82	36.4	0	1	292	0.00	29.749 
18:10	41.5	41.5	41.5	83	36.7	0	1	292	0.00	29.749 
18:15	41.5	41.5	41.5	83	36.7	0	2	292	0.00	29.751 
18:20	41.3	41.3	41.3	84	36.8	1	5	292	0.00	29.751 
18:25	41.2	41.2	41.2	84	36.7	0	3	270	0.00	29.751 
18:30	41.2	41.2	41.2	85	37.0	0	2	292	0.00	29.751 
18:35	41.1	41.1	41.1	85	36.9	0	2	292	0.00	29.751 
18:40	41.1	41.1	41.1	85	36.9	0	1	292	0.00	29.751 
18:45	41.1	41.1	41.1	86	37.2	0	3	292	0.00	29.740 
18:50	41.2	41.2	41.2	86	37.3	0	1	292	0.00	29.740 
18:55	41.2	41.2	41.2	86	37.3	0	3	270	0.00	29.740 
19:00	41.2	41.2	41.2	86	37.3	0	3	270	0.00	29.740 
19:05	41.3	41.3	41.3	86	37.4	0	2	270	0.00	29.740 
19:10	41.5	41.5	41.5	85	37.3	1	5	248	0.00	29.740 
19:15	41.5	41.5	41.5	85	37.3	0	2	292	0.00	29.741 
19:20	41.6	41.6	41.6	84	37.1	0	2	270	0.00	29.741 
19:25	41.8	41.8	41.8	84	37.3	0	2	270	0.00	29.741 
19:30	41.8	41.8	41.8	84	37.3	0	3	270	0.00	29.741 
19:35	41.9	41.9	41.9	84	37.4	0	2	270	0.00	29.741 
19:40	42.1	42.1	42.1	83	37.3	0	4	270	0.00	29.741 
19:45	42.2	42.2	42.2	82	37.1	1	5	270	0.00	29.746 
19:50	42.3	42.3	42.3	82	37.2	1	4	270	0.00	29.746 
19:55	42.3	42.3	42.3	81	36.9	1	4	270	0.00	29.746 
20:00	42.5	42.5	42.5	81	37.1	1	4	248	0.00	29.748 
20:05	42.6	42.6	42.6	80	36.9	1	6	270	0.00	29.748 
20:10	42.8	42.8	42.8	79	36.7	1	4	270	0.00	29.748 
20:15	42.8	42.8	42.8	79	36.7	0	2	248	0.00	29.754 
20:20	42.8	42.8	42.8	79	36.7	0	2	248	0.00	29.754 
20:25	42.8	42.8	42.8	78	36.4	1	5	248	0.00	29.754 
20:30	42.9	42.9	42.9	77	36.2	1	5	270	0.00	29.760 
20:35	42.9	42.9	42.9	77	36.2	1	5	270	0.00	29.760 
20:40	42.9	42.9	42.9	77	36.2	1	7	270	0.00	29.760 
20:45	42.9	42.9	42.9	76	35.9	1	5	270	0.00	29.766 
20:50	42.8	42.8	42.8	76	35.8	2	6	292	0.00	29.766 
20:55	42.8	42.8	42.8	76	35.8	0	4	270	0.00	29.766 
21:00	42.6	42.6	42.6	77	35.9	0	3	270	0.00	29.764 
21:05	42.6	42.6	42.6	77	35.9	1	4	248	0.00	29.764 
21:10	42.6	42.6	42.6	77	35.9	0	2	248	0.00	29.764 
21:15	42.6	42.6	42.6	77	35.9	1	4	248	0.00	29.766 
21:20	42.6	42.6	42.6	77	35.9	0	2	248	0.00	29.766 
21:25	42.6	42.6	42.6	77	35.9	0	4	248	0.00	29.766 
21:30	42.6	42.6	42.6	77	35.9	1	4	248	0.00	29.769 
21:35	42.6	42.6	42.6	77	35.9	0	5	248	0.00	29.769 
21:40	42.6	42.6	42.6	77	35.9	0	4	248	0.00	29.769 
21:45	42.8	42.8	42.8	77	36.1	0	4	248	0.00	29.770 
21:50	42.8	42.8	42.8	77	36.1	0	2	248	0.00	29.770 
21:55	42.8	42.8	42.8	77	36.1	0	2	248	0.00	29.770 
22:00	42.6	42.6	42.6	77	35.9	0	3	248	0.00	29.776 
22:05	42.6	42.6	42.6	78	36.2	0	1	248	0.00	29.776 
22:10	42.6	42.6	42.6	78	36.2	0	1	248	0.00	29.776 
22:15	42.6	42.6	42.6	78	36.2	0	3	248	0.00	29.773 
22:20	42.6	42.6	42.6	78	36.2	0	1	248	0.00	29.773 
22:25	42.6	42.6	42.6	78	36.2	0	3	248	0.00	29.773 
22:30	42.6	42.6	42.6	78	36.2	0	1	248	0.00	29.772 
22:35	42.6	42.6	42.6	78	36.2	0	3	248	0.00	29.772 
22:40	42.8	42.8	42.8	78	36.4	0	2	248	0.00	29.772 
22:45	42.8	42.8	42.8	78	36.4	0	3	248	0.00	29.776 
22:50	42.8	42.8	42.8	78	36.4	0	3	270	0.00	29.776 
22:55	42.8	42.8	42.8	78	36.4	1	7	270	0.00	29.776 
23:00	42.9	42.9	42.9	78	36.5	0	4	270	0.00	29.775 
23:05	42.9	42.9	42.9	78	36.5	0	3	270	0.00	29.775 
23:10	42.9	42.9	42.9	77	36.2	1	3	270	0.00	29.775 
23:15	43.1	43.1	43.1	77	36.4	0	3	270	0.00	29.776 
23:20	43.1	43.1	43.1	75	35.7	0	3	270	0.00	29.776 
23:25	43.2	43.2	43.2	75	35.8	0	3	270	0.00	29.776 
23:30	43.3	43.3	43.3	74	35.6	0	3	270	0.00	29.778 
23:35	43.3	43.3	43.3	73	35.2	1	6	270	0.00	29.778 
23:40	43.5	43.5	43.5	73	35.4	1	4	270	0.00	29.778 
23:45	43.6	43.6	43.6	73	35.5	1	5	270	0.00	29.777 
23:50	43.6	43.6	43.6	73	35.5	1	5	270	0.00	29.777 
23:55	43.8	43.8	43.8	72	35.4	0	4	270	0.00	29.777 

CoCoRaHS
IN-AL-39
A2 Web Hosting
Creative Commons License
GoDaddy
search engine by freefind advanced

loaded 2018-11-13 21:16:03 • last modified 2010-11-18 10:43:29
Privacy PolicyDisclaimer
• wx.awcolley.com is powered by PmWiki v.2002016 •
• all content (unless otherwise noted) © 2018 A W Colley